Time;durP1;ratioP1;P1;durP2;ratioP2;P2;SDS_P1;SDS_P2;PMS_P1;PMS_P2;Temp;Humidity;BMP_temperature;BMP_pressure;BME280_temperature;BME280_humidity;BME280_pressure;Samples;Min_cycle;Max_cycle;Signal;HPM_P1;HPM_P2
2024/04/15 00:02:23;;;;;;;13.77;5.55;;;;;;;;;;5365548;26;20976;-72
2024/04/15 00:04:52;;;;;;;13.25;5.18;;;;;;;;;;5368759;26;20015;-72
2024/04/15 00:07:19;;;;;;;13.05;4.75;;;;;;;;;;5372345;26;20019;-71
2024/04/15 00:09:46;;;;;;;12.60;4.22;;;;;;;;;;5373529;26;20018;-72
2024/04/15 00:12:14;;;;;;;11.65;4.13;;;;;;;;;;5377619;26;20015;-72
2024/04/15 00:14:42;;;;;;;11.05;3.75;;;;;;;;;;5372274;26;20007;-72
2024/04/15 00:17:10;;;;;;;11.68;3.97;;;;;;;;;;5361405;26;21022;-72
2024/04/15 00:19:37;;;;;;;8.15;3.30;;;;;;;;;;5377693;26;20008;-72
2024/04/15 00:22:05;;;;;;;8.95;3.38;;;;;;;;;;5369063;26;20015;-72
2024/04/15 00:24:32;;;;;;;10.75;3.90;;;;;;;;;;5361307;26;20459;-72
2024/04/15 00:27:00;;;;;;;10.40;3.50;;;;;;;;;;5359476;26;21039;-72
2024/04/15 00:29:27;;;;;;;9.75;3.60;;;;;;;;;;5358169;26;20014;-69
2024/04/15 00:31:55;;;;;;;9.63;3.42;;;;;;;;;;5372140;26;20014;-72
2024/04/15 00:34:22;;;;;;;10.52;3.60;;;;;;;;;;5362237;26;20887;-72
2024/04/15 00:36:51;;;;;;;8.98;3.22;;;;;;;;;;5372583;26;20018;-69
2024/04/15 00:39:19;;;;;;;10.68;3.75;;;;;;;;;;5382195;26;20019;-69
2024/04/15 00:41:47;;;;;;;9.30;3.20;;;;;;;;;;5377524;26;20011;-73
2024/04/15 00:44:15;;;;;;;9.25;3.20;;;;;;;;;;5380236;26;19998;-72
2024/04/15 00:46:44;;;;;;;11.38;3.63;;;;;;;;;;5377238;26;20634;-70
2024/04/15 00:49:13;;;;;;;10.98;3.75;;;;;;;;;;5354562;26;20052;-69
2024/04/15 00:51:43;;;;;;;8.52;3.00;;;;;;;;;;5375489;26;20023;-71
2024/04/15 00:54:11;;;;;;;12.05;3.80;;;;;;;;;;5363693;26;20063;-70
2024/04/15 00:56:39;;;;;;;11.90;3.70;;;;;;;;;;5371276;26;20007;-70
2024/04/15 00:59:07;;;;;;;9.93;3.33;;;;;;;;;;5354853;26;20709;-70
2024/04/15 01:01:34;;;;;;;11.32;3.28;;;;;;;;;;5376025;26;20004;-70
2024/04/15 01:04:02;;;;;;;10.80;3.22;;;;;;;;;;5372465;26;20006;-70
2024/04/15 01:06:30;;;;;;;10.88;3.58;;;;;;;;;;5378517;26;20015;-70
2024/04/15 01:08:57;;;;;;;10.15;3.53;;;;;;;;;;5360885;26;20019;-71
2024/04/15 01:11:26;;;;;;;9.25;3.38;;;;;;;;;;5366765;26;20072;-70
2024/04/15 01:13:54;;;;;;;10.38;3.25;;;;;;;;;;5370474;26;20069;-70
2024/04/15 01:16:21;;;;;;;8.82;3.00;;;;;;;;;;5381776;26;20018;-70
2024/04/15 01:18:51;;;;;;;9.43;2.67;;;;;;;;;;5380579;26;20013;-70
2024/04/15 01:21:20;;;;;;;8.70;2.67;;;;;;;;;;5382253;26;21189;-70
2024/04/15 01:23:50;;;;;;;8.30;2.80;;;;;;;;;;5372644;26;20010;-71
2024/04/15 01:26:16;;;;;;;8.93;2.65;;;;;;;;;;5384751;26;20018;-70
2024/04/15 01:28:44;;;;;;;9.32;3.22;;;;;;;;;;5363916;26;20011;-70
2024/04/15 01:31:13;;;;;;;9.90;2.90;;;;;;;;;;5379400;26;20013;-70
2024/04/15 01:33:42;;;;;;;8.02;2.83;;;;;;;;;;5380239;26;20113;-70
2024/04/15 01:36:11;;;;;;;7.85;2.50;;;;;;;;;;5375242;26;20913;-71
2024/04/15 01:38:39;;;;;;;8.10;2.60;;;;;;;;;;5380422;26;20010;-71
2024/04/15 01:41:08;;;;;;;8.43;2.63;;;;;;;;;;5365596;26;20003;-70
2024/04/15 01:43:36;;;;;;;9.85;3.17;;;;;;;;;;5370643;26;19999;-70
2024/04/15 01:46:05;;;;;;;9.73;2.80;;;;;;;;;;5375476;26;20445;-70
2024/04/15 01:48:32;;;;;;;9.13;2.50;;;;;;;;;;5382591;26;20011;-71
2024/04/15 01:50:59;;;;;;;6.97;2.63;;;;;;;;;;5376625;26;20000;-70
2024/04/15 01:53:27;;;;;;;8.63;2.72;;;;;;;;;;5374502;26;20015;-70
2024/04/15 01:55:57;;;;;;;8.43;2.58;;;;;;;;;;5373660;26;20003;-70
2024/04/15 01:58:25;;;;;;;9.50;2.60;;;;;;;;;;5376609;26;20013;-70
2024/04/15 02:00:54;;;;;;;7.88;2.55;;;;;;;;;;5369516;26;20004;-70
2024/04/15 02:03:21;;;;;;;8.23;2.88;;;;;;;;;;5375947;26;20038;-71
2024/04/15 02:05:49;;;;;;;7.55;2.97;;;;;;;;;;5368746;26;20004;-70
2024/04/15 02:08:20;;;;;;;7.18;2.42;;;;;;;;;;5381376;26;20970;-71
2024/04/15 02:10:49;;;;;;;9.07;3.03;;;;;;;;;;5373822;26;22024;-71
2024/04/15 02:13:19;;;;;;;8.60;3.30;;;;;;;;;;5381054;26;20107;-70
2024/04/15 02:15:46;;;;;;;8.05;3.03;;;;;;;;;;5367040;26;19995;-70
2024/04/15 02:18:15;;;;;;;9.07;3.08;;;;;;;;;;5384183;26;20018;-71
2024/04/15 02:20:44;;;;;;;8.40;3.00;;;;;;;;;;5377367;26;20446;-70
2024/04/15 02:23:11;;;;;;;8.35;3.00;;;;;;;;;;5372822;26;20057;-70
2024/04/15 02:25:40;;;;;;;9.52;3.08;;;;;;;;;;5379245;26;20012;-71
2024/04/15 02:28:09;;;;;;;9.73;2.85;;;;;;;;;;5370723;26;22877;-71
2024/04/15 02:30:37;;;;;;;9.15;2.72;;;;;;;;;;5367416;26;20007;-71
2024/04/15 02:33:06;;;;;;;8.77;2.78;;;;;;;;;;5370061;26;20030;-71
2024/04/15 02:35:35;;;;;;;8.27;2.90;;;;;;;;;;5371415;26;20007;-71
2024/04/15 02:38:04;;;;;;;7.90;2.90;;;;;;;;;;5369771;26;20072;-71
2024/04/15 02:40:33;;;;;;;9.38;2.55;;;;;;;;;;5376564;26;20088;-71
2024/04/15 02:42:59;;;;;;;8.35;2.58;;;;;;;;;;5366889;26;20022;-71
2024/04/15 02:45:27;;;;;;;7.93;2.65;;;;;;;;;;5368496;26;20011;-71
2024/04/15 02:47:55;;;;;;;8.13;2.47;;;;;;;;;;5370695;26;20014;-72
2024/04/15 02:50:21;;;;;;;7.50;2.42;;;;;;;;;;5375578;26;20804;-71
2024/04/15 02:52:51;;;;;;;7.47;2.17;;;;;;;;;;5358639;26;20007;-71
2024/04/15 02:55:19;;;;;;;7.43;2.30;;;;;;;;;;5378393;26;20004;-71
2024/04/15 02:57:48;;;;;;;7.47;2.40;;;;;;;;;;5359056;26;20093;-71
2024/04/15 03:00:16;;;;;;;7.53;2.30;;;;;;;;;;5368221;26;20019;-71
2024/04/15 03:02:44;;;;;;;7.15;2.30;;;;;;;;;;5376479;26;20007;-71
2024/04/15 03:05:12;;;;;;;6.97;2.45;;;;;;;;;;5374357;26;20008;-71
2024/04/15 03:07:42;;;;;;;7.50;2.40;;;;;;;;;;5377304;26;20004;-71
2024/04/15 03:10:10;;;;;;;5.68;2.08;;;;;;;;;;5372464;26;20003;-71
2024/04/15 03:12:39;;;;;;;6.25;2.20;;;;;;;;;;5372433;26;20004;-71
2024/04/15 03:15:07;;;;;;;6.50;2.25;;;;;;;;;;5359133;26;20023;-71
2024/04/15 03:17:35;;;;;;;7.85;2.58;;;;;;;;;;5370803;26;20011;-71
2024/04/15 03:20:04;;;;;;;6.70;2.30;;;;;;;;;;5366998;26;20011;-71
2024/04/15 03:22:33;;;;;;;7.68;2.60;;;;;;;;;;5380222;26;20008;-71
2024/04/15 03:25:02;;;;;;;7.15;2.40;;;;;;;;;;5368469;26;20029;-71
2024/04/15 03:27:29;;;;;;;9.93;2.80;;;;;;;;;;5375426;26;20019;-71
2024/04/15 03:29:56;;;;;;;7.38;2.50;;;;;;;;;;5353228;26;20726;-71
2024/04/15 03:32:25;;;;;;;9.82;3.00;;;;;;;;;;5378489;26;20426;-71
2024/04/15 03:34:55;;;;;;;8.45;2.67;;;;;;;;;;5371171;26;20007;-71
2024/04/15 03:37:22;;;;;;;11.15;3.40;;;;;;;;;;5379515;26;20004;-71
2024/04/15 03:39:54;;;;;;;9.27;3.08;;;;;;;;;;5357472;26;20019;-70
2024/04/15 03:42:22;;;;;;;9.52;3.22;;;;;;;;;;5378606;26;20023;-71
2024/04/15 03:44:55;;;;;;;10.30;3.60;;;;;;;;;;5376034;26;20003;-71
2024/04/15 03:47:23;;;;;;;10.52;4.30;;;;;;;;;;5365563;26;20959;-71
2024/04/15 03:50:11;;;;;;;11.32;4.10;;;;;;;;;;5375537;26;20022;-71
2024/04/15 03:52:41;;;;;;;10.45;4.00;;;;;;;;;;5380688;26;21182;-72
2024/04/15 03:55:11;;;;;;;10.25;4.00;;;;;;;;;;5376518;26;20204;-71
2024/04/15 03:57:39;;;;;;;10.45;4.40;;;;;;;;;;5373853;26;20023;-71
2024/04/15 04:00:08;;;;;;;10.63;4.10;;;;;;;;;;5359435;26;22271;-71
2024/04/15 04:02:35;;;;;;;14.35;4.18;;;;;;;;;;5378711;26;20022;-71
2024/04/15 04:05:05;;;;;;;10.13;4.20;;;;;;;;;;5356061;26;20003;-71
2024/04/15 04:07:34;;;;;;;10.05;4.30;;;;;;;;;;5379116;26;20084;-71
2024/04/15 04:10:04;;;;;;;10.50;4.13;;;;;;;;;;5361420;26;20008;-71
2024/04/15 04:12:31;;;;;;;9.70;4.00;;;;;;;;;;5378024;26;20007;-71
2024/04/15 04:14:59;;;;;;;10.35;3.92;;;;;;;;;;5360759;26;20004;-71
2024/04/15 04:17:27;;;;;;;12.32;4.20;;;;;;;;;;5364433;26;20018;-71
2024/04/15 04:19:58;;;;;;;13.13;4.50;;;;;;;;;;5369603;26;20019;-71
2024/04/15 04:22:26;;;;;;;10.27;4.00;;;;;;;;;;5382236;26;20014;-71
2024/04/15 04:24:54;;;;;;;11.32;4.30;;;;;;;;;;5371358;26;20015;-71
2024/04/15 04:27:23;;;;;;;12.27;4.43;;;;;;;;;;5379947;26;20019;-71
2024/04/15 04:29:50;;;;;;;10.73;3.85;;;;;;;;;;5370288;26;20010;-71
2024/04/15 04:32:18;;;;;;;10.82;4.18;;;;;;;;;;5378874;26;20003;-71
2024/04/15 04:34:47;;;;;;;14.75;4.25;;;;;;;;;;5382879;26;20011;-72
2024/04/15 04:37:16;;;;;;;16.33;4.30;;;;;;;;;;5379962;26;20011;-71
2024/04/15 04:39:45;;;;;;;11.10;3.90;;;;;;;;;;5371430;26;20107;-71
2024/04/15 04:42:12;;;;;;;14.80;4.50;;;;;;;;;;5364358;26;20025;-71
2024/04/15 04:44:40;;;;;;;20.48;4.90;;;;;;;;;;5378632;26;20013;-71
2024/04/15 04:47:08;;;;;;;21.90;5.55;;;;;;;;;;5372718;26;20012;-71
2024/04/15 04:49:37;;;;;;;26.35;5.65;;;;;;;;;;5377129;26;20006;-71
2024/04/15 04:52:03;;;;;;;26.13;5.75;;;;;;;;;;5358246;26;20035;-71
2024/04/15 04:54:31;;;;;;;21.63;5.00;;;;;;;;;;5367292;26;20019;-71
2024/04/15 04:57:00;;;;;;;16.75;4.60;;;;;;;;;;5361208;26;20014;-71
2024/04/15 04:59:28;;;;;;;14.88;4.50;;;;;;;;;;5376244;26;20026;-71
2024/04/15 05:01:55;;;;;;;15.90;3.72;;;;;;;;;;5361199;26;20000;-71
2024/04/15 05:04:23;;;;;;;13.63;3.67;;;;;;;;;;5365536;26;20083;-70
2024/04/15 05:06:51;;;;;;;13.15;3.72;;;;;;;;;;5358745;26;20055;-71
2024/04/15 05:09:19;;;;;;;10.82;3.33;;;;;;;;;;5373823;26;20015;-71
2024/04/15 05:11:49;;;;;;;11.05;3.30;;;;;;;;;;5374901;26;20464;-70
2024/04/15 05:14:17;;;;;;;10.07;3.30;;;;;;;;;;5377112;26;20501;-71
2024/04/15 05:16:48;;;;;;;9.80;3.10;;;;;;;;;;5373375;26;20748;-71
2024/04/15 05:19:19;;;;;;;10.43;3.20;;;;;;;;;;5371459;26;20000;-70
2024/04/15 05:21:48;;;;;;;9.05;3.05;;;;;;;;;;5359132;26;20011;-70
2024/04/15 05:24:17;;;;;;;8.48;2.90;;;;;;;;;;5380918;26;20616;-71
2024/04/15 05:26:45;;;;;;;14.20;3.30;;;;;;;;;;5379520;26;19999;-71
2024/04/15 05:29:14;;;;;;;9.80;3.05;;;;;;;;;;5378122;26;20006;-71
2024/04/15 05:31:41;;;;;;;9.88;2.92;;;;;;;;;;5362857;26;20004;-70
2024/04/15 05:34:07;;;;;;;8.98;2.88;;;;;;;;;;5367281;26;20055;-70
2024/04/15 05:36:36;;;;;;;9.80;2.65;;;;;;;;;;5362431;26;20018;-70
2024/04/15 05:39:05;;;;;;;11.13;3.22;;;;;;;;;;5370041;26;20007;-71
2024/04/15 05:41:32;;;;;;;10.63;3.08;;;;;;;;;;5383609;26;20026;-71
2024/04/15 05:43:59;;;;;;;10.57;2.95;;;;;;;;;;5375800;26;20006;-70
2024/04/15 05:46:28;;;;;;;10.75;3.00;;;;;;;;;;5358310;26;20003;-71
2024/04/15 05:48:57;;;;;;;14.10;3.10;;;;;;;;;;5373674;26;20055;-70
2024/04/15 05:51:24;;;;;;;11.52;2.95;;;;;;;;;;5385276;26;20023;-70
2024/04/15 05:53:53;;;;;;;7.32;2.50;;;;;;;;;;5377927;26;20338;-71
2024/04/15 05:56:22;;;;;;;9.02;2.90;;;;;;;;;;5376957;26;20011;-71
2024/04/15 05:58:51;;;;;;;10.00;2.90;;;;;;;;;;5388184;26;20018;-70
2024/04/15 06:01:20;;;;;;;9.82;3.47;;;;;;;;;;5382349;26;20007;-71
2024/04/15 06:03:49;;;;;;;7.78;2.70;;;;;;;;;;5377068;26;20107;-71
2024/04/15 06:06:16;;;;;;;11.40;2.88;;;;;;;;;;5378891;26;20022;-70
2024/04/15 06:08:44;;;;;;;9.15;2.80;;;;;;;;;;5382792;26;20596;-71
2024/04/15 06:11:12;;;;;;;10.60;2.90;;;;;;;;;;5376051;26;20881;-70
2024/04/15 06:13:38;;;;;;;10.32;3.30;;;;;;;;;;5366859;26;20038;-71
2024/04/15 06:16:07;;;;;;;12.43;3.25;;;;;;;;;;5375028;26;20004;-71
2024/04/15 06:18:34;;;;;;;8.90;2.97;;;;;;;;;;5384961;26;20046;-70
2024/04/15 06:21:03;;;;;;;11.07;3.22;;;;;;;;;;5376945;26;20038;-71
2024/04/15 06:23:31;;;;;;;8.25;3.22;;;;;;;;;;5380672;26;20013;-71
2024/04/15 06:26:00;;;;;;;9.32;3.17;;;;;;;;;;5375184;26;19996;-71
2024/04/15 06:28:29;;;;;;;12.43;3.60;;;;;;;;;;5372924;26;20015;-71
2024/04/15 06:30:57;;;;;;;11.98;3.65;;;;;;;;;;5375946;26;20019;-70
2024/04/15 06:33:27;;;;;;;12.65;3.55;;;;;;;;;;5381571;26;20016;-70
2024/04/15 06:35:54;;;;;;;14.85;3.90;;;;;;;;;;5384128;26;20003;-70
2024/04/15 06:38:20;;;;;;;12.27;3.78;;;;;;;;;;5390527;26;20790;-71
2024/04/15 06:40:49;;;;;;;14.68;3.92;;;;;;;;;;5361206;26;20004;-70
2024/04/15 06:43:16;;;;;;;10.80;3.65;;;;;;;;;;5372459;26;20015;-70
2024/04/15 06:45:46;;;;;;;14.45;4.90;;;;;;;;;;5379414;26;20010;-71
2024/04/15 06:48:16;;;;;;;11.02;4.85;;;;;;;;;;5367684;26;20025;-70
2024/04/15 06:50:46;;;;;;;12.20;5.15;;;;;;;;;;5379411;26;20624;-71
2024/04/15 06:53:14;;;;;;;16.63;6.00;;;;;;;;;;5389622;26;20502;-72
2024/04/15 06:55:44;;;;;;;21.95;5.50;;;;;;;;;;5376432;26;21011;-70
2024/04/15 06:58:12;;;;;;;16.83;5.63;;;;;;;;;;5365095;26;20023;-70
2024/04/15 07:00:39;;;;;;;21.20;5.85;;;;;;;;;;5387925;26;19999;-69
2024/04/15 07:03:09;;;;;;;17.35;4.82;;;;;;;;;;5376366;26;20039;-71
2024/04/15 07:05:37;;;;;;;10.95;3.80;;;;;;;;;;5374325;26;20033;-69
2024/04/15 07:08:06;;;;;;;14.73;4.70;;;;;;;;;;5379319;26;20034;-69
2024/04/15 07:10:47;;;;;;;11.45;4.32;;;;;;;;;;5378924;26;20033;-69
2024/04/15 07:13:16;;;;;;;10.20;4.18;;;;;;;;;;5379691;26;19996;-70
2024/04/15 07:15:44;;;;;;;11.82;4.55;;;;;;;;;;5382451;26;20007;-70
2024/04/15 07:18:13;;;;;;;16.33;4.65;;;;;;;;;;5379381;26;20503;-70
2024/04/15 07:20:41;;;;;;;19.58;4.80;;;;;;;;;;5370228;26;20374;-70
2024/04/15 07:23:11;;;;;;;15.82;4.53;;;;;;;;;;5359572;26;20004;-70
2024/04/15 07:25:40;;;;;;;16.55;4.85;;;;;;;;;;5363375;26;20126;-70
2024/04/15 07:28:09;;;;;;;13.60;4.03;;;;;;;;;;5368789;26;20088;-69
2024/04/15 07:30:38;;;;;;;11.50;3.72;;;;;;;;;;5371361;26;20015;-70
2024/04/15 07:33:08;;;;;;;12.10;4.15;;;;;;;;;;5371616;26;20728;-69
2024/04/15 07:35:37;;;;;;;12.80;3.72;;;;;;;;;;5358595;26;20024;-70
2024/04/15 07:38:05;;;;;;;10.85;3.88;;;;;;;;;;5374549;26;20000;-70
2024/04/15 07:40:35;;;;;;;10.65;3.80;;;;;;;;;;5381186;26;20052;-73
2024/04/15 07:43:02;;;;;;;14.30;4.30;;;;;;;;;;5377848;26;20005;-70
2024/04/15 07:45:30;;;;;;;12.77;3.55;;;;;;;;;;5373835;26;20000;-71
2024/04/15 07:47:58;;;;;;;10.85;3.55;;;;;;;;;;5365419;26;20011;-69
2024/04/15 07:50:28;;;;;;;12.95;3.88;;;;;;;;;;5351534;26;20906;-72
2024/04/15 07:52:57;;;;;;;12.25;3.70;;;;;;;;;;5371669;26;19999;-71
2024/04/15 07:55:24;;;;;;;12.70;3.83;;;;;;;;;;5376465;26;20003;-71
2024/04/15 07:57:53;;;;;;;10.23;3.42;;;;;;;;;;5372582;26;20027;-71
2024/04/15 08:00:22;;;;;;;9.32;2.97;;;;;;;;;;5376348;26;20030;-77
2024/04/15 08:02:51;;;;;;;10.60;2.92;;;;;;;;;;5370012;26;20208;-71
2024/04/15 08:05:19;;;;;;;10.35;2.67;;;;;;;;;;5376760;26;20092;-71
2024/04/15 08:07:46;;;;;;;6.65;2.58;;;;;;;;;;5340012;26;19999;-71
2024/04/15 08:10:13;;;;;;;7.38;2.50;;;;;;;;;;5359316;26;20019;-71
2024/04/15 08:12:42;;;;;;;9.10;3.00;;;;;;;;;;5375897;26;20000;-71
2024/04/15 08:15:11;;;;;;;8.55;2.70;;;;;;;;;;5375601;26;20003;-71
2024/04/15 08:17:37;;;;;;;9.98;3.10;;;;;;;;;;5373556;26;20049;-71
2024/04/15 08:20:08;;;;;;;10.65;3.70;;;;;;;;;;5371889;26;20000;-71
2024/04/15 08:22:36;;;;;;;10.43;3.30;;;;;;;;;;5369785;26;20643;-72
2024/04/15 08:25:08;;;;;;;13.23;3.45;;;;;;;;;;5368107;26;20489;-71
2024/04/15 08:27:37;;;;;;;14.55;3.45;;;;;;;;;;5363786;26;20014;-71
2024/04/15 08:30:07;;;;;;;11.77;3.63;;;;;;;;;;5367819;26;20869;-71
2024/04/15 08:32:36;;;;;;;10.90;3.70;;;;;;;;;;5371402;26;20008;-71
2024/04/15 08:35:05;;;;;;;11.55;3.33;;;;;;;;;;5362001;26;20023;-71
2024/04/15 08:37:34;;;;;;;11.57;3.40;;;;;;;;;;5365040;26;20040;-71
2024/04/15 08:40:04;;;;;;;9.98;2.95;;;;;;;;;;5368601;26;20897;-71
2024/04/15 08:42:53;;;;;;;9.57;2.78;;;;;;;;;;5372003;26;20000;-71
2024/04/15 08:45:39;;;;;;;10.30;2.28;;;;;;;;;;5371192;26;20017;-71
2024/04/15 08:48:09;;;;;;;8.50;2.25;;;;;;;;;;5348619;26;20023;-71
2024/04/15 08:50:38;;;;;;;10.38;2.53;;;;;;;;;;5377567;26;20010;-71
2024/04/15 08:53:06;;;;;;;9.50;2.53;;;;;;;;;;5355438;26;20909;-71
2024/04/15 08:55:34;;;;;;;12.00;3.10;;;;;;;;;;5370987;26;20018;-71
2024/04/15 08:58:03;;;;;;;9.35;2.72;;;;;;;;;;5368367;26;20003;-72
2024/04/15 09:00:32;;;;;;;10.25;2.72;;;;;;;;;;5372138;26;20021;-71
2024/04/15 09:02:59;;;;;;;7.07;2.47;;;;;;;;;;5358816;26;20008;-71
2024/04/15 09:05:28;;;;;;;8.23;2.67;;;;;;;;;;5360790;26;20000;-72
2024/04/15 09:07:57;;;;;;;7.30;2.47;;;;;;;;;;5365341;26;20010;-72
2024/04/15 09:10:24;;;;;;;9.02;2.50;;;;;;;;;;5380909;26;20011;-71
2024/04/15 09:12:51;;;;;;;8.82;2.33;;;;;;;;;;5378937;26;20428;-72
2024/04/15 09:15:22;;;;;;;8.63;2.40;;;;;;;;;;5375983;26;19999;-71
2024/04/15 09:17:50;;;;;;;7.18;1.95;;;;;;;;;;5360693;26;20023;-71
2024/04/15 09:20:21;;;;;;;8.30;2.30;;;;;;;;;;5378276;26;20007;-72
2024/04/15 09:22:50;;;;;;;7.43;2.22;;;;;;;;;;5373137;26;20018;-72
2024/04/15 09:25:18;;;;;;;7.20;2.10;;;;;;;;;;5386678;26;20007;-71
2024/04/15 09:27:46;;;;;;;8.23;2.13;;;;;;;;;;5383074;26;20479;-71
2024/04/15 09:30:15;;;;;;;9.63;2.40;;;;;;;;;;5377867;26;20007;-71
2024/04/15 09:32:43;;;;;;;7.28;2.40;;;;;;;;;;5375476;26;20003;-71
2024/04/15 09:35:12;;;;;;;10.15;3.35;;;;;;;;;;5360852;26;20378;-71
2024/04/15 09:37:41;;;;;;;9.38;3.65;;;;;;;;;;5363510;26;20049;-71
2024/04/15 09:40:14;;;;;;;11.02;4.10;;;;;;;;;;5370220;26;20008;-71
2024/04/15 09:42:43;;;;;;;12.38;4.22;;;;;;;;;;5370805;26;20012;-71
2024/04/15 09:45:12;;;;;;;9.13;3.88;;;;;;;;;;5376430;26;20039;-71
2024/04/15 09:47:46;;;;;;;15.65;3.40;;;;;;;;;;5380247;26;20406;-73
2024/04/15 09:50:15;;;;;;;7.70;2.80;;;;;;;;;;5334591;26;20575;-73
2024/04/15 09:52:45;;;;;;;8.30;2.78;;;;;;;;;;5377314;26;20462;-71
2024/04/15 09:55:18;;;;;;;8.43;2.75;;;;;;;;;;5374868;26;19999;-71
2024/04/15 09:57:47;;;;;;;10.45;3.17;;;;;;;;;;5370554;26;20011;-71
2024/04/15 10:00:16;;;;;;;7.60;2.70;;;;;;;;;;5373178;26;20038;-71
2024/04/15 10:03:02;;;;;;;8.23;2.65;;;;;;;;;;5368978;26;20015;-72
2024/04/15 10:05:32;;;;;;;10.15;3.10;;;;;;;;;;5362834;26;20084;-71
2024/04/15 10:07:59;;;;;;;8.25;2.60;;;;;;;;;;5357405;26;20028;-72
2024/04/15 10:10:28;;;;;;;9.90;2.22;;;;;;;;;;5365520;26;20019;-72
2024/04/15 10:13:03;;;;;;;9.40;2.15;;;;;;;;;;5363798;26;20007;-73
2024/04/15 10:15:31;;;;;;;6.72;2.42;;;;;;;;;;5375880;26;20039;-72
2024/04/15 10:18:13;;;;;;;6.57;1.98;;;;;;;;;;5373758;26;20014;-72
2024/04/15 10:20:45;;;;;;;6.50;1.90;;;;;;;;;;5379412;26;20148;-73
2024/04/15 10:23:24;;;;;;;8.32;2.03;;;;;;;;;;5377119;26;20349;-71
2024/04/15 10:25:56;;;;;;;5.95;2.08;;;;;;;;;;5362402;26;20008;-71
2024/04/15 10:28:24;;;;;;;10.05;2.30;;;;;;;;;;5379229;26;20080;-71
2024/04/15 10:30:52;;;;;;;6.38;1.80;;;;;;;;;;5357325;26;20461;-71
2024/04/15 10:33:24;;;;;;;8.10;2.20;;;;;;;;;;5378006;26;20000;-71
2024/04/15 10:35:53;;;;;;;5.80;1.90;;;;;;;;;;5372081;26;20477;-72
2024/04/15 10:38:21;;;;;;;7.30;1.70;;;;;;;;;;5376876;26;20099;-71
2024/04/15 10:40:50;;;;;;;9.65;2.20;;;;;;;;;;5364306;26;20661;-71
2024/04/15 10:43:24;;;;;;;6.47;1.90;;;;;;;;;;5366322;26;20011;-71
2024/04/15 10:45:51;;;;;;;8.07;1.75;;;;;;;;;;5367934;26;20012;-72
2024/04/15 10:48:20;;;;;;;5.35;1.77;;;;;;;;;;5378973;26;20603;-72
2024/04/15 10:50:46;;;;;;;6.35;1.90;;;;;;;;;;5362019;26;20007;-72
2024/04/15 10:53:15;;;;;;;8.65;2.10;;;;;;;;;;5382313;26;20007;-72
2024/04/15 10:55:45;;;;;;;7.60;1.75;;;;;;;;;;5368297;26;20019;-72
2024/04/15 10:58:14;;;;;;;7.90;2.08;;;;;;;;;;5370082;26;19995;-72
2024/04/15 11:00:45;;;;;;;7.57;2.03;;;;;;;;;;5354572;26;20011;-71
2024/04/15 11:03:14;;;;;;;8.35;1.83;;;;;;;;;;5372151;26;20007;-72
2024/04/15 11:05:42;;;;;;;5.65;1.83;;;;;;;;;;5370167;26;20035;-71
2024/04/15 11:08:13;;;;;;;6.82;2.08;;;;;;;;;;5370289;26;20070;-71
2024/04/15 11:10:41;;;;;;;6.72;1.85;;;;;;;;;;5374075;26;20025;-71
2024/04/15 11:13:15;;;;;;;7.22;2.15;;;;;;;;;;5366998;26;20007;-72
2024/04/15 11:15:44;;;;;;;7.70;2.00;;;;;;;;;;5376799;26;20011;-70
2024/04/15 11:18:20;;;;;;;7.15;1.85;;;;;;;;;;5360388;26;20071;-71
2024/04/15 11:20:49;;;;;;;5.05;1.70;;;;;;;;;;5372227;26;21075;-71
2024/04/15 11:23:16;;;;;;;7.10;1.85;;;;;;;;;;5362750;26;20053;-72
2024/04/15 11:25:46;;;;;;;9.15;2.10;;;;;;;;;;5370771;26;20007;-71
2024/04/15 11:28:15;;;;;;;7.00;2.00;;;;;;;;;;5378415;26;20018;-71
2024/04/15 11:30:43;;;;;;;8.77;2.30;;;;;;;;;;5375741;26;20003;-71
2024/04/15 11:33:12;;;;;;;8.23;1.90;;;;;;;;;;5360827;26;20004;-71
2024/04/15 11:35:50;;;;;;;5.93;2.10;;;;;;;;;;5365679;26;20014;-70
2024/04/15 11:38:22;;;;;;;8.75;2.30;;;;;;;;;;5352982;26;20022;-70
2024/04/15 11:40:50;;;;;;;8.77;2.33;;;;;;;;;;5361213;26;20012;-70
2024/04/15 11:43:19;;;;;;;9.27;2.55;;;;;;;;;;5361737;26;20017;-70
2024/04/15 11:45:58;;;;;;;9.90;2.35;;;;;;;;;;5372361;26;20015;-71
2024/04/15 11:48:26;;;;;;;6.88;2.00;;;;;;;;;;5367493;26;20018;-70
2024/04/15 11:50:54;;;;;;;8.93;2.40;;;;;;;;;;5362479;26;20093;-71
2024/04/15 11:53:24;;;;;;;5.72;2.13;;;;;;;;;;5335956;26;20375;-70
2024/04/15 11:55:54;;;;;;;8.00;2.53;;;;;;;;;;5329037;26;20019;-70
2024/04/15 11:58:26;;;;;;;7.13;2.03;;;;;;;;;;5364357;26;20015;-71
2024/04/15 12:00:54;;;;;;;10.48;2.20;;;;;;;;;;5373137;26;19999;-70
2024/04/15 12:03:23;;;;;;;5.75;1.67;;;;;;;;;;5366595;26;20078;-70
2024/04/15 12:05:53;;;;;;;6.95;1.58;;;;;;;;;;5336536;26;21020;-71
2024/04/15 12:08:26;;;;;;;5.60;1.90;;;;;;;;;;5363800;26;20003;-70
2024/04/15 12:10:54;;;;;;;5.60;1.65;;;;;;;;;;5364454;26;20007;-70
2024/04/15 12:13:23;;;;;;;5.63;1.70;;;;;;;;;;5373789;26;20474;-69
2024/04/15 12:16:07;;;;;;;7.68;2.03;;;;;;;;;;5366910;26;20683;-69
2024/04/15 12:18:36;;;;;;;7.90;2.45;;;;;;;;;;5338835;26;20007;-70
2024/04/15 12:21:05;;;;;;;4.55;1.58;;;;;;;;;;5358584;26;20006;-69
2024/04/15 12:23:33;;;;;;;7.55;1.60;;;;;;;;;;5375854;26;20014;-69
2024/04/15 12:26:00;;;;;;;4.93;1.50;;;;;;;;;;5370923;26;20050;-69
2024/04/15 12:28:29;;;;;;;6.80;2.15;;;;;;;;;;5368415;26;20015;-71
2024/04/15 12:30:57;;;;;;;6.85;2.10;;;;;;;;;;5361845;26;20039;-70
2024/04/15 12:33:26;;;;;;;5.32;1.70;;;;;;;;;;5367910;26;20449;-69
2024/04/15 12:36:14;;;;;;;6.57;1.90;;;;;;;;;;5360834;26;20054;-69
2024/04/15 12:38:42;;;;;;;6.47;1.52;;;;;;;;;;5380723;26;20027;-70
2024/04/15 12:41:10;;;;;;;7.05;1.98;;;;;;;;;;5354914;26;20935;-69
2024/04/15 12:43:41;;;;;;;5.43;2.10;;;;;;;;;;5373423;26;21443;-69
2024/04/15 12:46:08;;;;;;;7.90;1.90;;;;;;;;;;5354431;26;20718;-69
2024/04/15 12:48:37;;;;;;;7.80;2.05;;;;;;;;;;5372420;26;20002;-69
2024/04/15 12:51:04;;;;;;;8.45;2.10;;;;;;;;;;5370614;26;20609;-71
2024/04/15 12:53:33;;;;;;;6.97;2.10;;;;;;;;;;5368783;26;20000;-69
2024/04/15 12:56:01;;;;;;;7.13;2.03;;;;;;;;;;5356990;26;20457;-70
2024/04/15 12:58:30;;;;;;;7.32;1.92;;;;;;;;;;5377610;26;20004;-70
2024/04/15 13:00:59;;;;;;;7.90;1.92;;;;;;;;;;5368186;26;20003;-70
2024/04/15 13:03:27;;;;;;;18.35;2.20;;;;;;;;;;5364797;26;20087;-70
2024/04/15 13:05:55;;;;;;;7.30;2.00;;;;;;;;;;5373698;26;20024;-70
2024/04/15 13:08:23;;;;;;;6.80;1.70;;;;;;;;;;5362831;26;20034;-70
2024/04/15 13:10:50;;;;;;;5.28;1.50;;;;;;;;;;5364259;26;20012;-69
2024/04/15 13:13:17;;;;;;;29.17;2.65;;;;;;;;;;5369392;26;20014;-69
2024/04/15 13:15:45;;;;;;;8.18;1.85;;;;;;;;;;5372153;26;20026;-69
2024/04/15 13:18:13;;;;;;;10.57;1.88;;;;;;;;;;5361557;26;20076;-69
2024/04/15 13:20:42;;;;;;;7.35;2.00;;;;;;;;;;5363593;26;20015;-70
2024/04/15 13:23:11;;;;;;;7.03;2.00;;;;;;;;;;5356152;26;20080;-72
2024/04/15 13:25:39;;;;;;;8.88;1.85;;;;;;;;;;5376307;26;20088;-69
2024/04/15 13:28:07;;;;;;;5.13;1.50;;;;;;;;;;5365624;26;20015;-70
2024/04/15 13:30:35;;;;;;;7.25;1.92;;;;;;;;;;5339304;26;20098;-69
2024/04/15 13:33:01;;;;;;;7.97;1.90;;;;;;;;;;5363604;26;20014;-70
2024/04/15 13:35:30;;;;;;;8.75;1.85;;;;;;;;;;5370944;26;20575;-70
2024/04/15 13:37:57;;;;;;;6.70;1.95;;;;;;;;;;5363301;26;20022;-69
2024/04/15 13:40:25;;;;;;;5.20;1.67;;;;;;;;;;5380042;26;20085;-69
2024/04/15 13:42:52;;;;;;;8.32;2.05;;;;;;;;;;5365900;26;20014;-69
2024/04/15 13:45:19;;;;;;;7.90;1.77;;;;;;;;;;5354646;26;20000;-70
2024/04/15 13:47:48;;;;;;;6.68;1.80;;;;;;;;;;5364760;26;20019;-70
2024/04/15 13:50:16;;;;;;;7.80;1.92;;;;;;;;;;5375678;26;19999;-70
2024/04/15 13:52:43;;;;;;;7.68;1.73;;;;;;;;;;5375529;26;20003;-69
2024/04/15 13:55:11;;;;;;;7.78;2.25;;;;;;;;;;5364390;26;20846;-69
2024/04/15 13:57:40;;;;;;;5.22;1.70;;;;;;;;;;5377652;26;20493;-70
2024/04/15 14:00:10;;;;;;;5.28;1.67;;;;;;;;;;5362603;26;21601;-69
2024/04/15 14:02:38;;;;;;;6.13;1.70;;;;;;;;;;5384930;26;20025;-70
2024/04/15 14:05:10;;;;;;;9.55;2.00;;;;;;;;;;5359837;26;20014;-68
2024/04/15 14:07:42;;;;;;;7.25;1.73;;;;;;;;;;5363659;26;20102;-69
2024/04/15 14:10:10;;;;;;;6.78;1.90;;;;;;;;;;5373050;26;20011;-69
2024/04/15 14:12:39;;;;;;;6.95;1.85;;;;;;;;;;5372366;26;20295;-69
2024/04/15 14:15:07;;;;;;;6.93;1.98;;;;;;;;;;5358186;26;20748;-69
2024/04/15 14:17:36;;;;;;;8.63;1.95;;;;;;;;;;5359670;26;20495;-69
2024/04/15 14:20:05;;;;;;;6.35;1.73;;;;;;;;;;5370095;26;20007;-69
2024/04/15 14:22:34;;;;;;;6.13;1.80;;;;;;;;;;5370405;26;20008;-69
2024/04/15 14:25:01;;;;;;;7.65;1.92;;;;;;;;;;5367646;26;19995;-69
2024/04/15 14:27:30;;;;;;;7.70;1.70;;;;;;;;;;5371395;26;20022;-69
2024/04/15 14:30:00;;;;;;;8.68;1.70;;;;;;;;;;5367787;26;20042;-69
2024/04/15 14:32:28;;;;;;;7.30;1.80;;;;;;;;;;5374064;26;20090;-69
2024/04/15 14:34:57;;;;;;;7.93;2.00;;;;;;;;;;5367923;26;19996;-69
2024/04/15 14:37:23;;;;;;;10.18;1.85;;;;;;;;;;5363801;26;21973;-69
2024/04/15 14:39:51;;;;;;;7.30;2.08;;;;;;;;;;5368943;26;19999;-69
2024/04/15 14:42:20;;;;;;;7.35;2.00;;;;;;;;;;5373037;26;20879;-69
2024/04/15 14:44:47;;;;;;;6.78;1.75;;;;;;;;;;5364579;26;20524;-70
2024/04/15 14:47:14;;;;;;;6.50;1.83;;;;;;;;;;5374768;26;23059;-70
2024/04/15 14:49:43;;;;;;;9.73;2.03;;;;;;;;;;5379656;26;20003;-70